Time;durP1;ratioP1;P1;durP2;ratioP2;P2;SDS_P1;SDS_P2;PMS_P1;PMS_P2;Temp;Humidity;BMP_temperature;BMP_pressure;BME280_temperature;BME280_humidity;BME280_pressure;Samples;Min_cycle;Max_cycle;Signal;HPM_P1;HPM_P2
2021/11/22 00:00:08;;;;;;;1.50;1.40;;;3.00;99.90;;;;;;5058941;28;20202;-79
2021/11/22 00:02:35;;;;;;;0.50;0.40;;;3.00;99.90;;;;;;5060737;28;20178;-79
2021/11/22 00:05:02;;;;;;;0.50;0.40;;;3.00;99.90;;;;;;5060228;28;20194;-80
2021/11/22 00:07:28;;;;;;;0.50;0.40;;;3.10;99.90;;;;;;5059615;28;20218;-80
2021/11/22 00:09:55;;;;;;;0.40;0.40;;;3.10;99.90;;;;;;5059775;28;20219;-80
2021/11/22 00:12:23;;;;;;;0.50;0.40;;;3.20;99.90;;;;;;5059906;28;20224;-80
2021/11/22 00:14:51;;;;;;;0.50;0.40;;;3.10;99.90;;;;;;5059965;28;20205;-76
2021/11/22 00:17:18;;;;;;;0.40;0.40;;;3.00;99.90;;;;;;5059862;28;20227;-80
2021/11/22 00:19:44;;;;;;;0.50;0.40;;;3.10;99.90;;;;;;5059231;28;20230;-79
2021/11/22 00:22:11;;;;;;;0.50;0.47;;;3.10;99.90;;;;;;5059556;28;20575;-80
2021/11/22 00:24:38;;;;;;;0.50;0.45;;;3.10;99.90;;;;;;5059362;28;20209;-80
2021/11/22 00:27:05;;;;;;;0.50;0.40;;;3.10;99.90;;;;;;5059487;28;20295;-79
2021/11/22 00:29:33;;;;;;;0.50;0.40;;;3.00;99.90;;;;;;5059481;28;20210;-81
2021/11/22 00:32:03;;;;;;;0.50;0.40;;;3.00;99.90;;;;;;5059583;28;20194;-80
2021/11/22 00:34:30;;;;;;;0.50;0.40;;;3.00;99.90;;;;;;5059181;28;20431;-79
2021/11/22 00:36:57;;;;;;;0.40;0.40;;;3.00;99.90;;;;;;5057987;28;20219;-80
2021/11/22 00:39:24;;;;;;;0.50;0.40;;;3.00;99.90;;;;;;5058944;28;20703;-80
2021/11/22 00:41:51;;;;;;;0.40;0.40;;;3.00;99.90;;;;;;5059127;28;20190;-80
2021/11/22 00:44:18;;;;;;;0.40;0.40;;;3.10;99.90;;;;;;5059570;28;20354;-80
2021/11/22 00:46:44;;;;;;;0.50;0.40;;;3.20;99.90;;;;;;5058961;28;20191;-77
2021/11/22 00:49:13;;;;;;;0.40;0.40;;;3.40;99.90;;;;;;5059580;28;20226;-79
2021/11/22 00:51:39;;;;;;;0.40;0.40;;;3.50;99.90;;;;;;5059865;28;20198;-80
2021/11/22 00:54:06;;;;;;;0.50;0.40;;;3.70;99.90;;;;;;5059840;28;20563;-80
2021/11/22 00:56:36;;;;;;;0.60;0.60;;;3.80;99.90;;;;;;5059904;28;20240;-78
2021/11/22 00:59:03;;;;;;;0.40;0.40;;;3.90;99.90;;;;;;5058854;28;20242;-80
2021/11/22 01:01:29;;;;;;;0.40;0.40;;;3.90;99.90;;;;;;5060125;28;20191;-80
2021/11/22 01:03:56;;;;;;;0.50;0.40;;;4.00;99.90;;;;;;5059490;28;20198;-80
2021/11/22 01:06:24;;;;;;;0.40;0.40;;;4.10;99.90;;;;;;5059009;28;20203;-80
2021/11/22 01:08:51;;;;;;;0.40;0.40;;;4.10;99.90;;;;;;5059138;28;20223;-80
2021/11/22 01:11:18;;;;;;;0.50;0.40;;;4.10;99.90;;;;;;5058124;28;20199;-80
2021/11/22 01:13:44;;;;;;;0.40;0.40;;;4.20;99.90;;;;;;5055851;28;20198;-78
2021/11/22 01:16:11;;;;;;;0.57;0.55;;;4.30;99.90;;;;;;5055737;28;20205;-79
2021/11/22 01:18:38;;;;;;;0.60;0.60;;;4.40;99.90;;;;;;5054979;28;20226;-79
2021/11/22 01:21:05;;;;;;;0.70;0.70;;;4.40;99.90;;;;;;5055204;28;20210;-79
2021/11/22 01:23:34;;;;;;;0.70;0.70;;;4.50;99.90;;;;;;5055079;28;20648;-79
2021/11/22 01:26:01;;;;;;;0.40;0.40;;;4.50;99.90;;;;;;5055199;28;20205;-79
2021/11/22 01:28:29;;;;;;;0.40;0.40;;;4.50;99.90;;;;;;5054975;28;20849;-79
2021/11/22 01:30:57;;;;;;;2.75;2.55;;;4.50;99.90;;;;;;5054696;28;20203;-79
2021/11/22 01:33:24;;;;;;;0.40;0.40;;;4.60;99.90;;;;;;5055164;28;20202;-79
2021/11/22 01:35:51;;;;;;;2.45;2.25;;;4.60;99.90;;;;;;5055052;28;20194;-75
2021/11/22 01:38:19;;;;;;;0.40;0.40;;;4.70;99.90;;;;;;5054647;28;20876;-78
2021/11/22 01:40:49;;;;;;;6.93;2.05;;;4.70;99.90;;;;;;5053996;28;20690;-78
2021/11/22 01:43:16;;;;;;;0.40;0.40;;;4.80;99.90;;;;;;5054888;28;20296;-77
2021/11/22 01:45:44;;;;;;;0.43;0.40;;;4.80;99.90;;;;;;5055091;28;20209;-79
2021/11/22 01:48:11;;;;;;;0.47;0.47;;;4.80;99.90;;;;;;5054073;28;20702;-79
2021/11/22 01:50:38;;;;;;;0.98;0.98;;;4.80;99.90;;;;;;5054519;28;20195;-79
2021/11/22 01:53:04;;;;;;;0.43;0.40;;;4.90;99.90;;;;;;5055979;28;20674;-78
2021/11/22 01:55:32;;;;;;;0.40;0.40;;;4.90;99.90;;;;;;5054565;28;20190;-79
2021/11/22 01:58:01;;;;;;;0.50;0.50;;;4.90;99.90;;;;;;5053799;28;20218;-79
2021/11/22 02:00:30;;;;;;;1.85;1.75;;;4.90;99.90;;;;;;5053775;28;20187;-79
2021/11/22 02:02:58;;;;;;;1.13;1.13;;;5.00;99.90;;;;;;5053477;28;20191;-78
2021/11/22 02:05:25;;;;;;;0.47;0.47;;;4.90;99.90;;;;;;5053480;28;20195;-79
2021/11/22 02:07:52;;;;;;;0.40;0.40;;;4.90;99.90;;;;;;5054318;28;20223;-77
2021/11/22 02:10:20;;;;;;;0.40;0.40;;;5.00;99.90;;;;;;5053112;28;20199;-78
2021/11/22 02:12:47;;;;;;;0.40;0.30;;;5.10;99.90;;;;;;5053734;28;20198;-75
2021/11/22 02:15:16;;;;;;;0.40;0.40;;;5.00;99.90;;;;;;5054329;28;20202;-79
2021/11/22 02:17:46;;;;;;;1.65;1.08;;;5.00;99.90;;;;;;5054311;28;20482;-79
2021/11/22 02:20:16;;;;;;;0.50;0.40;;;5.10;99.90;;;;;;5052743;28;20195;-80
2021/11/22 02:22:45;;;;;;;0.50;0.50;;;5.10;99.90;;;;;;5054325;28;20537;-79
2021/11/22 02:25:13;;;;;;;0.40;0.30;;;5.10;99.90;;;;;;5053791;28;20202;-79
2021/11/22 02:27:40;;;;;;;2.28;2.17;;;5.00;99.90;;;;;;5053439;28;20226;-76
2021/11/22 02:30:08;;;;;;;1.10;1.00;;;5.10;99.90;;;;;;5053188;28;20199;-79
2021/11/22 02:32:37;;;;;;;2.92;0.80;;;5.00;99.90;;;;;;5053982;28;20660;-79
2021/11/22 02:35:04;;;;;;;2.42;2.15;;;5.10;99.90;;;;;;5053540;28;20190;-79
2021/11/22 02:37:33;;;;;;;0.40;0.40;;;5.20;99.90;;;;;;5054176;28;20194;-79
2021/11/22 02:39:59;;;;;;;1.25;1.25;;;5.20;99.90;;;;;;5053963;28;20222;-79
2021/11/22 02:42:28;;;;;;;0.45;0.40;;;5.20;99.90;;;;;;5053380;28;20190;-80
2021/11/22 02:44:55;;;;;;;0.40;0.40;;;5.20;99.90;;;;;;5054361;28;20198;-78
2021/11/22 02:47:23;;;;;;;0.40;0.40;;;5.20;99.90;;;;;;5053182;28;20202;-79
2021/11/22 02:49:50;;;;;;;0.40;0.40;;;5.20;99.90;;;;;;5054038;28;20219;-79
2021/11/22 02:52:17;;;;;;;0.40;0.30;;;5.20;99.90;;;;;;5054285;28;20679;-79
2021/11/22 02:54:46;;;;;;;0.40;0.40;;;5.20;99.90;;;;;;5054369;28;20620;-79
2021/11/22 02:57:13;;;;;;;1.85;1.40;;;5.10;99.90;;;;;;5052313;28;20568;-79
2021/11/22 02:59:41;;;;;;;0.50;0.50;;;5.10;99.90;;;;;;5053113;28;20210;-79
2021/11/22 03:02:09;;;;;;;0.40;0.40;;;5.20;99.90;;;;;;5052771;28;20194;-78
2021/11/22 03:04:38;;;;;;;2.35;1.30;;;5.10;99.90;;;;;;5052609;28;20194;-79
2021/11/22 03:07:05;;;;;;;3.10;0.90;;;5.20;99.90;;;;;;5053336;28;20190;-79
2021/11/22 03:09:32;;;;;;;1.58;1.13;;;5.30;99.90;;;;;;5052358;28;20223;-79
2021/11/22 03:12:04;;;;;;;0.40;0.40;;;5.20;99.90;;;;;;5051929;28;20210;-79
2021/11/22 03:14:32;;;;;;;3.38;3.08;;;5.20;99.90;;;;;;5052672;28;20202;-79
2021/11/22 03:16:59;;;;;;;0.40;0.40;;;5.20;99.90;;;;;;5053173;28;20199;-79
2021/11/22 03:19:26;;;;;;;0.50;0.40;;;5.30;99.90;;;;;;5051820;28;20230;-79
2021/11/22 03:21:53;;;;;;;0.40;0.40;;;5.30;99.90;;;;;;5053264;28;20190;-79
2021/11/22 03:24:21;;;;;;;0.40;0.40;;;5.30;99.90;;;;;;5051988;28;20194;-79
2021/11/22 03:26:48;;;;;;;0.70;0.70;;;5.30;99.90;;;;;;5051980;28;20203;-78
2021/11/22 03:29:16;;;;;;;0.40;0.40;;;5.30;99.90;;;;;;5051541;28;20218;-79
2021/11/22 03:31:43;;;;;;;0.40;0.40;;;5.30;99.90;;;;;;5052285;28;20213;-80
2021/11/22 03:34:13;;;;;;;0.60;0.60;;;5.30;99.90;;;;;;5054152;28;20194;-79
2021/11/22 03:36:41;;;;;;;0.50;0.40;;;5.30;99.90;;;;;;5056013;28;20191;-79
2021/11/22 03:39:16;;;;;;;1.90;1.58;;;5.20;99.90;;;;;;5055779;28;20268;-79
2021/11/22 03:41:43;;;;;;;0.50;0.40;;;5.30;99.90;;;;;;5056360;28;20224;-79
2021/11/22 03:44:13;;;;;;;0.50;0.40;;;5.20;99.90;;;;;;5055816;28;20290;-78
2021/11/22 03:46:44;;;;;;;0.50;0.50;;;5.30;99.90;;;;;;5056771;28;20176;-79
2021/11/22 03:49:11;;;;;;;0.40;0.40;;;5.30;99.90;;;;;;5055608;28;20218;-79
2021/11/22 03:51:39;;;;;;;0.50;0.50;;;5.30;99.90;;;;;;5055783;28;20195;-79
2021/11/22 03:54:06;;;;;;;0.40;0.40;;;5.30;99.90;;;;;;5055977;28;20195;-79
2021/11/22 03:56:33;;;;;;;0.50;0.40;;;5.30;99.90;;;;;;5056031;28;20194;-79
2021/11/22 03:59:00;;;;;;;1.75;0.73;;;5.30;99.90;;;;;;5055162;28;20587;-79
2021/11/22 04:01:26;;;;;;;0.40;0.40;;;5.30;99.90;;;;;;5055642;28;20201;-79
2021/11/22 04:03:55;;;;;;;0.65;0.65;;;5.30;99.90;;;;;;5055787;28;20198;-79
2021/11/22 04:06:21;;;;;;;0.70;0.70;;;5.40;99.90;;;;;;5055877;28;20206;-79
2021/11/22 04:08:48;;;;;;;0.50;0.47;;;5.30;99.90;;;;;;5056776;28;20225;-77
2021/11/22 04:11:15;;;;;;;0.98;0.98;;;5.30;99.90;;;;;;5056645;28;20194;-79
2021/11/22 04:13:43;;;;;;;0.50;0.40;;;5.30;99.90;;;;;;5055195;28;20652;-79
2021/11/22 04:16:11;;;;;;;0.50;0.40;;;5.30;99.90;;;;;;5055256;28;20252;-80
2021/11/22 04:18:38;;;;;;;0.50;0.40;;;5.30;99.90;;;;;;5055329;28;20615;-79
2021/11/22 04:21:06;;;;;;;0.50;0.40;;;5.30;99.90;;;;;;5055173;28;20667;-79
2021/11/22 04:23:34;;;;;;;0.50;0.40;;;5.30;99.90;;;;;;5056046;28;20203;-79
2021/11/22 04:26:00;;;;;;;0.50;0.50;;;5.30;99.90;;;;;;5054709;28;20244;-78
2021/11/22 04:28:27;;;;;;;0.50;0.40;;;5.30;99.90;;;;;;5056285;28;20219;-78
2021/11/22 04:30:54;;;;;;;0.75;0.75;;;5.30;99.90;;;;;;5054487;28;20198;-78
2021/11/22 04:33:21;;;;;;;0.77;0.77;;;5.30;99.90;;;;;;5054372;28;20194;-77
2021/11/22 04:35:48;;;;;;;0.50;0.40;;;5.30;99.90;;;;;;5054064;28;20194;-77
2021/11/22 04:38:16;;;;;;;0.50;0.40;;;5.20;99.90;;;;;;5054144;28;20214;-78
2021/11/22 04:40:43;;;;;;;0.50;0.40;;;5.20;99.90;;;;;;5054041;28;20198;-78
2021/11/22 04:43:09;;;;;;;0.50;0.40;;;5.20;99.90;;;;;;5054724;28;20191;-79
2021/11/22 04:45:36;;;;;;;0.50;0.40;;;5.20;99.90;;;;;;5054666;28;20218;-79
2021/11/22 04:48:06;;;;;;;0.50;0.45;;;5.30;99.90;;;;;;5054149;28;20221;-78
2021/11/22 04:50:34;;;;;;;0.50;0.40;;;5.30;99.90;;;;;;5054644;28;20186;-79
2021/11/22 04:53:03;;;;;;;1.13;1.05;;;5.30;99.90;;;;;;5055011;28;20191;-77
2021/11/22 04:55:33;;;;;;;0.95;0.95;;;5.20;99.90;;;;;;5054414;28;20201;-78
2021/11/22 04:57:59;;;;;;;0.50;0.40;;;5.10;99.90;;;;;;5054184;28;20194;-78
2021/11/22 05:00:27;;;;;;;0.50;0.40;;;5.00;99.90;;;;;;5053024;28;20211;-77
2021/11/22 05:02:54;;;;;;;0.50;0.40;;;4.90;99.90;;;;;;5053979;28;20201;-77
2021/11/22 05:05:21;;;;;;;0.50;0.40;;;4.80;99.90;;;;;;5053830;28;20194;-78
2021/11/22 05:07:49;;;;;;;0.40;0.40;;;4.80;99.90;;;;;;5053478;28;20206;-78
2021/11/22 05:10:18;;;;;;;0.50;0.40;;;4.80;99.90;;;;;;5053242;28;20215;-78
2021/11/22 05:12:46;;;;;;;0.45;0.40;;;4.80;99.90;;;;;;5054008;28;20281;-78
2021/11/22 05:15:13;;;;;;;0.50;0.40;;;4.80;99.90;;;;;;5054009;28;20202;-78
2021/11/22 05:17:41;;;;;;;0.50;0.40;;;4.80;99.90;;;;;;5054112;28;20270;-79
2021/11/22 05:20:08;;;;;;;0.50;0.50;;;4.80;99.90;;;;;;5052786;28;20199;-78
2021/11/22 05:22:36;;;;;;;0.50;0.40;;;4.80;99.90;;;;;;5053657;28;20203;-78
2021/11/22 05:25:03;;;;;;;0.50;0.40;;;4.80;99.90;;;;;;5053792;28;20195;-79
2021/11/22 05:27:31;;;;;;;0.50;0.40;;;4.80;99.90;;;;;;5053757;28;20256;-79
2021/11/22 05:30:00;;;;;;;0.85;0.82;;;4.80;99.90;;;;;;5053743;28;20217;-79
2021/11/22 05:32:26;;;;;;;0.40;0.40;;;4.80;99.90;;;;;;5053262;28;20290;-79
2021/11/22 05:34:56;;;;;;;0.40;0.40;;;4.80;99.90;;;;;;5053631;28;20198;-77
2021/11/22 05:37:23;;;;;;;0.40;0.40;;;4.80;99.90;;;;;;5053277;28;20201;-78
2021/11/22 05:39:50;;;;;;;0.47;0.45;;;4.90;99.90;;;;;;5052627;28;20218;-78
2021/11/22 05:42:18;;;;;;;0.93;0.93;;;4.90;99.90;;;;;;5053011;28;20225;-78
2021/11/22 05:44:45;;;;;;;1.52;1.35;;;4.90;99.90;;;;;;5053691;28;20198;-78
2021/11/22 05:47:13;;;;;;;1.48;1.27;;;4.90;99.90;;;;;;5052544;28;20198;-79
2021/11/22 05:49:41;;;;;;;2.70;1.67;;;4.90;99.90;;;;;;5052697;28;20309;-78
2021/11/22 05:52:10;;;;;;;0.60;0.60;;;4.90;99.90;;;;;;5053698;28;20201;-79
2021/11/22 05:54:45;;;;;;;0.60;0.60;;;4.90;99.90;;;;;;5052894;28;20202;-79
2021/11/22 05:57:12;;;;;;;0.50;0.40;;;4.80;99.90;;;;;;5071170;22;20260;-79
2021/11/22 05:59:39;;;;;;;0.52;0.52;;;4.80;99.90;;;;;;5068960;28;20194;-78
2021/11/22 06:02:05;;;;;;;1.38;1.27;;;4.70;99.90;;;;;;5074508;28;20301;-80
2021/11/22 06:04:34;;;;;;;0.77;0.77;;;4.70;99.90;;;;;;5074186;28;20207;-79
2021/11/22 06:07:01;;;;;;;2.92;2.83;;;4.80;99.90;;;;;;5072058;28;20305;-80
2021/11/22 06:09:28;;;;;;;0.50;0.40;;;4.80;99.90;;;;;;5065595;28;20215;-80
2021/11/22 06:11:55;;;;;;;0.47;0.40;;;4.90;99.90;;;;;;5050743;28;20258;-79
2021/11/22 06:14:21;;;;;;;1.80;1.70;;;4.90;99.90;;;;;;5054455;28;20607;-78
2021/11/22 06:16:48;;;;;;;0.43;0.40;;;4.80;99.90;;;;;;5057197;28;20276;-78
2021/11/22 06:19:15;;;;;;;0.40;0.40;;;4.80;99.90;;;;;;5049670;28;20202;-78
2021/11/22 06:21:43;;;;;;;0.50;0.40;;;4.80;99.90;;;;;;5053506;28;20188;-78
2021/11/22 06:24:10;;;;;;;0.50;0.40;;;4.80;99.90;;;;;;5044076;28;20203;-79
2021/11/22 06:26:37;;;;;;;0.50;0.40;;;4.80;99.90;;;;;;5048503;28;20187;-79
2021/11/22 06:29:04;;;;;;;0.60;0.60;;;4.80;99.90;;;;;;5052322;28;20217;-80
2021/11/22 06:31:31;;;;;;;1.08;1.08;;;4.80;99.90;;;;;;5047533;28;20215;-78
2021/11/22 06:33:58;;;;;;;0.50;0.40;;;4.90;99.90;;;;;;5041713;28;20267;-79
2021/11/22 06:36:24;;;;;;;0.50;0.40;;;4.90;99.90;;;;;;5034867;28;20286;-78
2021/11/22 06:38:53;;;;;;;1.20;1.10;;;4.90;99.90;;;;;;5034490;28;20222;-78
2021/11/22 06:41:19;;;;;;;0.50;0.40;;;4.80;99.90;;;;;;5034815;28;20206;-79
2021/11/22 06:43:46;;;;;;;0.47;0.40;;;4.90;99.90;;;;;;5037825;28;20200;-78
2021/11/22 06:46:13;;;;;;;0.50;0.40;;;4.90;99.90;;;;;;5040553;28;20266;-78
2021/11/22 06:48:40;;;;;;;0.50;0.40;;;4.80;99.90;;;;;;5039960;28;20284;-78
2021/11/22 06:51:07;;;;;;;0.45;0.40;;;4.80;99.90;;;;;;5040092;28;20222;-78
2021/11/22 06:53:34;;;;;;;0.70;0.70;;;4.80;99.90;;;;;;5040556;28;20199;-78
2021/11/22 06:56:03;;;;;;;0.52;0.52;;;4.80;99.90;;;;;;5041006;28;20201;-78
2021/11/22 06:58:30;;;;;;;0.50;0.40;;;4.70;99.90;;;;;;5040072;28;20223;-77
2021/11/22 07:00:57;;;;;;;0.55;0.55;;;4.80;99.90;;;;;;5038618;28;20194;-79
2021/11/22 07:03:24;;;;;;;0.90;0.90;;;4.70;99.90;;;;;;5040075;28;20195;-77
2021/11/22 07:05:51;;;;;;;2.88;1.48;;;4.60;99.90;;;;;;5040934;28;20588;-76
2021/11/22 07:08:18;;;;;;;0.50;0.40;;;4.60;99.90;;;;;;5043391;28;20233;-78
2021/11/22 07:10:45;;;;;;;0.50;0.40;;;4.60;99.90;;;;;;5044053;28;20211;-77
2021/11/22 07:13:13;;;;;;;0.50;0.40;;;4.60;99.90;;;;;;5042729;28;20206;-77
2021/11/22 07:15:42;;;;;;;0.60;0.60;;;4.60;99.90;;;;;;5044088;28;20191;-78
2021/11/22 07:18:09;;;;;;;2.90;2.80;;;4.60;99.90;;;;;;5042670;28;20718;-79
2021/11/22 07:20:35;;;;;;;0.50;0.40;;;4.70;99.90;;;;;;5041161;28;20223;-77
2021/11/22 07:23:02;;;;;;;0.40;0.40;;;4.70;99.90;;;;;;5041681;28;20191;-78
2021/11/22 07:25:30;;;;;;;0.50;0.50;;;4.70;99.90;;;;;;5041740;28;20202;-77
2021/11/22 07:27:57;;;;;;;0.50;0.40;;;4.70;99.90;;;;;;5042902;28;20464;-79
2021/11/22 07:30:25;;;;;;;2.83;2.05;;;4.60;99.90;;;;;;5041980;28;20215;-77
2021/11/22 07:32:54;;;;;;;0.47;0.40;;;4.50;99.90;;;;;;5040916;28;20199;-76
2021/11/22 07:35:22;;;;;;;1.13;1.02;;;4.50;99.90;;;;;;5037633;28;20959;-77
2021/11/22 07:37:49;;;;;;;2.25;1.75;;;4.60;99.90;;;;;;5035684;28;20215;-76
2021/11/22 07:40:20;;;;;;;0.98;0.98;;;4.50;99.90;;;;;;5035371;28;20278;-76
2021/11/22 07:42:47;;;;;;;1.70;1.60;;;4.40;99.90;;;;;;5035608;28;20635;-76
2021/11/22 07:45:14;;;;;;;1.08;0.98;;;4.40;99.90;;;;;;5036179;28;20191;-76
2021/11/22 07:47:42;;;;;;;2.00;1.20;;;4.50;99.90;;;;;;5036264;28;20282;-76
2021/11/22 07:50:09;;;;;;;0.40;0.40;;;4.60;99.90;;;;;;5035169;28;20212;-77
2021/11/22 07:52:36;;;;;;;1.77;1.63;;;4.60;99.90;;;;;;5036299;28;20218;-77
2021/11/22 07:55:03;;;;;;;0.50;0.40;;;4.60;99.90;;;;;;5037191;28;20207;-77
2021/11/22 07:57:30;;;;;;;0.50;0.40;;;4.70;99.90;;;;;;5037032;28;20575;-77
2021/11/22 07:59:57;;;;;;;0.50;0.40;;;4.70;99.90;;;;;;5036730;28;20182;-77
2021/11/22 08:02:24;;;;;;;0.50;0.40;;;4.80;99.90;;;;;;5037113;28;20684;-78
2021/11/22 08:04:52;;;;;;;0.50;0.40;;;4.90;99.90;;;;;;5036987;28;20941;-75
2021/11/22 08:07:21;;;;;;;0.50;0.50;;;4.90;99.90;;;;;;5036696;28;20211;-78
2021/11/22 08:09:57;;;;;;;2.75;2.55;;;4.90;99.90;;;;;;5035567;28;20775;-77
2021/11/22 08:12:27;;;;;;;0.50;0.43;;;4.90;99.90;;;;;;5035860;28;20203;-77
2021/11/22 08:14:55;;;;;;;0.50;0.40;;;4.90;99.90;;;;;;5050522;28;20197;-77
2021/11/22 08:17:22;;;;;;;0.50;0.40;;;4.80;99.90;;;;;;5055163;28;20219;-76
2021/11/22 08:19:49;;;;;;;0.50;0.40;;;4.80;99.90;;;;;;5053976;28;20205;-78
2021/11/22 08:22:20;;;;;;;2.08;1.98;;;4.80;99.90;;;;;;5055984;28;20202;-78
2021/11/22 08:24:50;;;;;;;0.70;0.70;;;4.70;99.90;;;;;;5053566;28;20568;-78
2021/11/22 08:27:17;;;;;;;0.50;0.40;;;4.80;99.90;;;;;;5045888;28;20216;-79
2021/11/22 08:29:44;;;;;;;0.50;0.40;;;4.90;99.90;;;;;;5057073;28;20210;-77
2021/11/22 08:32:11;;;;;;;0.50;0.40;;;5.00;99.90;;;;;;5057381;28;20191;-78
2021/11/22 08:34:38;;;;;;;0.50;0.50;;;5.00;99.90;;;;;;5056340;28;20206;-77
2021/11/22 08:37:04;;;;;;;0.80;0.50;;;5.00;99.90;;;;;;5056083;28;20221;-78
2021/11/22 08:39:33;;;;;;;1.05;0.70;;;5.00;99.90;;;;;;5056965;28;20199;-78
2021/11/22 08:41:59;;;;;;;1.67;1.52;;;5.00;99.90;;;;;;5057952;28;20197;-78
2021/11/22 08:44:26;;;;;;;1.75;0.77;;;5.00;99.90;;;;;;5056810;28;20194;-78
2021/11/22 08:46:53;;;;;;;0.50;0.40;;;5.00;99.90;;;;;;5057966;28;20545;-77
2021/11/22 08:49:20;;;;;;;1.50;1.05;;;5.00;99.90;;;;;;5056567;28;20198;-78
2021/11/22 08:51:47;;;;;;;0.50;0.40;;;5.10;99.90;;;;;;5057940;28;20198;-76
2021/11/22 08:54:14;;;;;;;0.50;0.40;;;5.20;99.90;;;;;;5057274;28;20564;-78
2021/11/22 08:56:43;;;;;;;0.50;0.40;;;5.20;99.90;;;;;;5056943;28;20200;-78
2021/11/22 08:59:10;;;;;;;0.50;0.40;;;5.30;99.90;;;;;;5055660;28;20202;-77
2021/11/22 09:01:38;;;;;;;0.50;0.40;;;5.30;99.90;;;;;;5056245;28;20193;-78
2021/11/22 09:04:05;;;;;;;2.15;1.40;;;5.30;99.90;;;;;;5057195;28;20195;-78
2021/11/22 09:06:34;;;;;;;0.50;0.40;;;5.30;99.90;;;;;;5056905;28;20191;-77
2021/11/22 09:09:02;;;;;;;2.15;1.15;;;5.40;99.90;;;;;;5055227;28;20214;-77
2021/11/22 09:11:28;;;;;;;0.60;0.60;;;5.30;99.90;;;;;;5056686;28;20224;-78
2021/11/22 09:13:57;;;;;;;3.67;3.47;;;5.40;99.90;;;;;;5056311;28;20248;-78
2021/11/22 09:16:27;;;;;;;1.40;1.30;;;5.30;99.90;;;;;;5056457;28;20630;-78
2021/11/22 09:18:55;;;;;;;0.93;0.93;;;5.40;99.90;;;;;;5056218;28;20216;-78
2021/11/22 09:21:22;;;;;;;1.50;0.98;;;5.30;99.90;;;;;;5056110;28;20194;-78
2021/11/22 09:23:51;;;;;;;2.78;1.85;;;5.40;99.90;;;;;;5056595;28;20197;-77
2021/11/22 09:26:18;;;;;;;0.50;0.50;;;5.40;99.90;;;;;;5056048;28;20730;-78
2021/11/22 09:28:46;;;;;;;1.45;1.25;;;5.50;99.90;;;;;;5055897;28;20219;-78
2021/11/22 09:31:16;;;;;;;0.50;0.40;;;5.60;99.90;;;;;;5054964;28;20210;-78
2021/11/22 09:33:44;;;;;;;0.50;0.40;;;5.60;99.90;;;;;;5056814;28;20199;-78
2021/11/22 09:36:11;;;;;;;0.50;0.40;;;5.60;99.90;;;;;;5057102;28;20223;-78
2021/11/22 09:38:39;;;;;;;0.50;0.40;;;5.60;99.90;;;;;;5056819;28;20584;-78
2021/11/22 09:41:07;;;;;;;0.50;0.40;;;5.70;99.90;;;;;;5056515;28;20194;-78
2021/11/22 09:43:34;;;;;;;0.60;0.60;;;5.80;99.90;;;;;;5056249;28;20199;-77
2021/11/22 09:46:01;;;;;;;0.50;0.40;;;6.20;99.90;;;;;;5056466;28;20278;-78
2021/11/22 09:48:29;;;;;;;0.50;0.40;;;6.40;99.90;;;;;;5055716;28;20225;-78
2021/11/22 09:50:57;;;;;;;0.63;0.63;;;6.70;99.90;;;;;;5055387;28;20211;-78
2021/11/22 09:53:24;;;;;;;5.75;1.85;;;7.10;99.90;;;;;;5055274;28;20668;-77
2021/11/22 09:55:51;;;;;;;0.50;0.40;;;7.50;99.90;;;;;;5056197;28;20203;-78
2021/11/22 09:58:17;;;;;;;0.50;0.40;;;8.00;99.90;;;;;;5056009;28;20233;-78
2021/11/22 10:00:46;;;;;;;1.95;1.85;;;8.40;99.90;;;;;;5055779;28;20192;-78
2021/11/22 10:03:15;;;;;;;1.40;1.33;;;8.30;99.90;;;;;;5055800;28;20200;-77
2021/11/22 10:05:44;;;;;;;0.50;0.40;;;8.40;99.90;;;;;;5055128;28;20509;-78
2021/11/22 10:08:13;;;;;;;0.50;0.40;;;8.50;99.90;;;;;;5055314;28;20223;-78
2021/11/22 10:10:43;;;;;;;0.50;0.50;;;8.60;99.90;;;;;;5053734;28;20224;-78
2021/11/22 10:13:27;;;;;;;2.25;1.25;;;8.70;99.90;;;;;;5055688;28;20211;-78
2021/11/22 10:15:56;;;;;;;0.60;0.60;;;8.40;99.90;;;;;;5055746;28;20191;-77
2021/11/22 10:18:25;;;;;;;0.50;0.40;;;8.60;99.90;;;;;;5061637;28;20243;-77
2021/11/22 10:20:56;;;;;;;0.50;0.40;;;9.20;99.90;;;;;;5059118;28;20661;-78
2021/11/22 10:23:26;;;;;;;0.60;0.50;;;9.90;99.90;;;;;;5057698;28;20202;-78
2021/11/22 10:25:55;;;;;;;0.95;0.95;;;10.20;99.90;;;;;;5055260;28;20181;-76
2021/11/22 10:28:24;;;;;;;0.50;0.40;;;10.60;99.90;;;;;;5054731;28;20257;-78
2021/11/22 10:30:53;;;;;;;0.70;0.70;;;10.70;99.90;;;;;;5054330;28;20625;-79
2021/11/22 10:33:22;;;;;;;1.23;1.20;;;11.00;99.90;;;;;;5054531;28;20221;-77
2021/11/22 10:35:51;;;;;;;0.85;0.85;;;10.70;99.90;;;;;;5055403;28;20196;-78
2021/11/22 10:38:21;;;;;;;0.50;0.40;;;11.10;99.90;;;;;;5055483;28;20701;-79
2021/11/22 10:40:51;;;;;;;0.50;0.40;;;11.40;99.90;;;;;;5053585;28;20194;-77
2021/11/22 10:43:18;;;;;;;0.50;0.40;;;11.70;99.90;;;;;;5056775;28;20203;-78
2021/11/22 10:45:47;;;;;;;0.55;0.40;;;11.90;99.90;;;;;;5055848;28;20190;-78
2021/11/22 10:48:25;;;;;;;0.50;0.40;;;12.00;99.90;;;;;;5056262;28;20300;-78
2021/11/22 10:51:08;;;;;;;0.50;0.40;;;11.90;99.90;;;;;;5054748;28;20229;-78
2021/11/22 10:53:39;;;;;;;0.50;0.40;;;12.00;99.90;;;;;;5055938;28;20209;-78
2021/11/22 10:56:09;;;;;;;0.50;0.40;;;12.10;99.90;;;;;;5055905;28;20475;-78
2021/11/22 10:58:49;;;;;;;0.50;0.40;;;11.90;99.90;;;;;;5056730;28;20224;-78
2021/11/22 11:01:35;;;;;;;0.50;0.40;;;11.80;99.90;;;;;;5054849;28;20522;-80
2021/11/22 11:04:05;;;;;;;0.50;0.40;;;11.80;99.90;;;;;;5056173;28;20205;-78
2021/11/22 11:06:46;;;;;;;0.60;0.50;;;11.80;99.90;;;;;;5056337;28;20198;-78
2021/11/22 11:09:17;;;;;;;0.50;0.40;;;11.20;99.90;;;;;;5055186;28;20440;-78
2021/11/22 11:11:46;;;;;;;0.50;0.40;;;11.10;99.90;;;;;;5054737;28;20524;-78
2021/11/22 11:14:15;;;;;;;0.50;0.40;;;10.80;99.90;;;;;;5055642;28;20293;-78
2021/11/22 11:16:44;;;;;;;0.50;0.40;;;10.50;99.90;;;;;;5054725;28;20197;-78
2021/11/22 11:19:14;;;;;;;0.50;0.40;;;10.30;99.90;;;;;;5054722;28;20265;-78
2021/11/22 11:21:43;;;;;;;0.50;0.40;;;10.30;99.90;;;;;;5054788;28;20193;-77
2021/11/22 11:24:11;;;;;;;0.50;0.40;;;10.30;99.90;;;;;;5055666;28;20212;-78
2021/11/22 11:26:41;;;;;;;0.50;0.40;;;10.60;99.90;;;;;;5054220;28;20198;-77
2021/11/22 11:29:08;;;;;;;0.50;0.40;;;10.90;99.90;;;;;;5054590;28;20201;-78
2021/11/22 11:31:37;;;;;;;0.70;0.70;;;11.30;99.90;;;;;;5055505;28;20640;-78
2021/11/22 11:34:07;;;;;;;0.50;0.40;;;11.60;99.90;;;;;;5055817;28;20526;-77
2021/11/22 11:36:48;;;;;;;0.50;0.40;;;12.00;99.90;;;;;;5055219;28;20447;-78
2021/11/22 11:39:30;;;;;;;0.50;0.40;;;12.70;99.90;;;;;;5055131;28;20456;-78
2021/11/22 11:42:12;;;;;;;0.50;0.40;;;13.10;99.90;;;;;;5055293;28;20881;-78
2021/11/22 11:44:51;;;;;;;0.50;0.40;;;13.30;99.90;;;;;;5055676;28;20425;-78
2021/11/22 11:47:33;;;;;;;0.50;0.40;;;13.70;99.90;;;;;;5055768;28;20465;-79
2021/11/22 11:50:19;;;;;;;0.50;0.40;;;13.90;99.90;;;;;;5055608;28;20467;-78
2021/11/22 11:52:55;;;;;;;0.50;0.40;;;14.10;96.30;;;;;;5055665;28;20472;-78
2021/11/22 11:55:22;;;;;;;0.50;0.40;;;13.70;93.20;;;;;;5057909;28;20572;-78
2021/11/22 11:57:50;;;;;;;0.50;0.40;;;13.00;93.80;;;;;;5059527;28;20474;-78
2021/11/22 12:00:25;;;;;;;0.50;0.40;;;12.60;99.90;;;;;;5079207;22;20480;-80
2021/11/22 12:03:04;;;;;;;0.50;0.40;;;12.30;99.90;;;;;;5112777;28;20430;-81
2021/11/22 12:05:44;;;;;;;0.50;0.40;;;11.90;99.90;;;;;;5126502;28;20911;-82
2021/11/22 12:08:22;;;;;;;0.50;0.40;;;11.60;99.90;;;;;;5126979;28;20175;-81
2021/11/22 12:10:49;;;;;;;0.60;0.55;;;11.50;99.90;;;;;;5116124;28;20220;-81
2021/11/22 12:13:17;;;;;;;0.50;0.40;;;11.50;99.90;;;;;;5105872;28;20193;-81
2021/11/22 12:15:47;;;;;;;0.50;0.40;;;11.30;99.90;;;;;;5106738;28;20204;-81
2021/11/22 12:18:24;;;;;;;0.50;0.40;;;10.80;99.90;;;;;;5107692;28;20616;-81
2021/11/22 12:20:56;;;;;;;0.50;0.40;;;10.50;99.90;;;;;;5106172;28;20221;-81
2021/11/22 12:23:28;;;;;;;0.50;0.40;;;10.10;99.90;;;;;;5106176;28;20220;-81
2021/11/22 12:25:58;;;;;;;0.50;0.40;;;9.70;99.90;;;;;;5107043;28;20216;-80
2021/11/22 12:28:45;;;;;;;0.50;0.40;;;9.30;99.90;;;;;;5106055;28;20203;-81
2021/11/22 12:31:14;;;;;;;0.50;0.40;;;9.10;99.90;;;;;;5105381;28;20220;-81
2021/11/22 12:33:43;;;;;;;0.50;0.40;;;9.00;99.90;;;;;;5107319;28;20207;-80
2021/11/22 12:36:30;;;;;;;0.50;0.40;;;9.10;99.90;;;;;;5106248;28;20204;-80
2021/11/22 12:39:06;;;;;;;0.50;0.40;;;9.30;99.90;;;;;;5107017;28;20180;-80
2021/11/22 12:41:36;;;;;;;0.50;0.40;;;9.50;99.90;;;;;;5106626;28;20212;-81
2021/11/22 12:44:08;;;;;;;0.50;0.40;;;9.60;99.90;;;;;;5106184;28;20231;-81
2021/11/22 12:46:55;;;;;;;0.50;0.40;;;9.80;99.90;;;;;;5107988;28;20206;-80
2021/11/22 12:49:32;;;;;;;0.50;0.40;;;9.60;99.90;;;;;;5106505;28;20247;-81
2021/11/22 12:52:26;;;;;;;0.50;0.40;;;9.40;99.90;;;;;;5105927;28;20220;-81
2021/11/22 12:55:02;;;;;;;0.50;0.40;;;9.30;99.90;;;;;;5102739;28;20203;-81
2021/11/22 12:57:32;;;;;;;0.50;0.40;;;9.40;99.90;;;;;;5105755;28;20223;-81
2021/11/22 13:00:23;;;;;;;0.50;0.40;;;9.50;99.90;;;;;;5105753;28;20222;-81
2021/11/22 13:02:54;;;;;;;0.50;0.40;;;9.50;99.90;;;;;;5105460;28;20193;-81